createdAt,value
2022-10-26T00:00:50.319Z,91.27
2022-10-26T00:01:50.446Z,90.81
2022-10-26T00:02:50.817Z,91.06
2022-10-26T00:03:50.288Z,91.63
2022-10-26T00:04:50.306Z,91.84
2022-10-26T00:05:50.264Z,91.67
2022-10-26T00:06:50.264Z,91.63
2022-10-26T00:07:50.362Z,91.06
2022-10-26T00:08:50.239Z,90.65
2022-10-26T00:09:50.232Z,90.85
2022-10-26T00:10:50.222Z,90.91
2022-10-26T00:11:50.205Z,91.47
2022-10-26T00:12:50.564Z,91.53
2022-10-26T00:13:50.257Z,91.63
2022-10-26T00:14:50.165Z,91.74
2022-10-26T00:15:50.198Z,90.61
2022-10-26T00:16:50.214Z,90.71
2022-10-26T00:17:50.453Z,90.91
2022-10-26T00:18:50.144Z,91.02
2022-10-26T00:19:50.117Z,91.02
2022-10-26T00:20:50.118Z,90.81
2022-10-26T00:21:50.173Z,90.91
2022-10-26T00:22:50.077Z,90.55
2022-10-26T00:23:50.184Z,90.71
2022-10-26T00:24:50.058Z,90.81
2022-10-26T00:25:50.049Z,92.14
2022-10-26T00:26:50.034Z,92.08
2022-10-26T00:27:50.553Z,91.42
2022-10-26T00:28:50.016Z,90.30
2022-10-26T00:29:50.014Z,89.99
2022-10-26T00:30:49.991Z,89.89
2022-10-26T00:31:49.981Z,90.09
2022-10-26T00:32:49.968Z,90.03
2022-10-26T00:33:50.072Z,89.72
2022-10-26T00:34:49.958Z,90.81
2022-10-26T00:35:49.940Z,90.61
2022-10-26T00:36:49.943Z,90.40
2022-10-26T00:37:50.233Z,90.09
2022-10-26T00:38:49.902Z,90.40
2022-10-26T00:39:49.926Z,90.50
2022-10-26T00:40:50.015Z,90.71
2022-10-26T00:41:49.882Z,91.02
2022-10-26T00:42:50.263Z,91.53
2022-10-26T00:43:49.857Z,90.61
2022-10-26T00:44:49.838Z,89.99
2022-10-26T00:45:49.916Z,90.81
2022-10-26T00:46:49.826Z,90.91
2022-10-26T00:47:49.806Z,91.84
2022-10-26T00:48:49.794Z,91.88
2022-10-26T00:49:49.784Z,91.33
2022-10-26T00:50:49.771Z,91.22
2022-10-26T00:51:49.850Z,91.37
2022-10-26T00:52:50.082Z,90.50
2022-10-26T00:53:49.742Z,90.14
2022-10-26T00:54:49.727Z,90.50
2022-10-26T00:55:49.756Z,91.12
2022-10-26T00:56:49.705Z,91.02
2022-10-26T00:57:49.834Z,91.02
2022-10-26T00:58:49.684Z,91.84
2022-10-26T00:59:49.674Z,92.31
2022-10-26T01:00:49.663Z,90.46
2022-10-26T01:01:49.719Z,90.67
2022-10-26T01:02:50.036Z,89.84
2022-10-26T01:03:49.753Z,89.95
2022-10-26T01:04:49.616Z,89.84
2022-10-26T01:05:49.611Z,90.05
2022-10-26T01:06:49.613Z,89.54
2022-10-26T01:07:49.839Z,89.54
2022-10-26T01:08:49.608Z,89.43
2022-10-26T01:09:49.617Z,90.05
2022-10-26T01:10:49.550Z,89.78
2022-10-26T01:11:49.543Z,90.20
2022-10-26T01:12:49.544Z,90.50
2022-10-26T01:13:49.519Z,90.50
2022-10-26T01:14:49.506Z,89.99
2022-10-26T01:15:49.588Z,89.58
2022-10-26T01:16:49.487Z,89.37
2022-10-26T01:17:49.838Z,90.24
2022-10-26T01:18:49.477Z,89.78
2022-10-26T01:19:49.454Z,90.40
2022-10-26T01:20:49.440Z,89.99
2022-10-26T01:21:49.508Z,89.58
2022-10-26T01:22:49.418Z,90.61
2022-10-26T01:23:49.410Z,89.78
2022-10-26T01:24:49.433Z,90.09
2022-10-26T01:25:49.390Z,90.30
2022-10-26T01:26:49.516Z,90.61
2022-10-26T01:27:49.595Z,89.69
2022-10-26T01:28:49.356Z,89.27
2022-10-26T01:29:49.349Z,90.40
2022-10-26T01:30:49.441Z,89.89
2022-10-26T01:31:49.319Z,89.93
2022-10-26T01:32:49.311Z,89.17
2022-10-26T01:33:49.331Z,89.48
2022-10-26T01:34:49.291Z,89.62
2022-10-26T01:35:49.278Z,89.69
2022-10-26T01:36:49.284Z,90.30
2022-10-26T01:37:49.506Z,89.01
2022-10-26T01:38:49.328Z,89.27
2022-10-26T01:39:49.237Z,89.48
2022-10-26T01:40:49.254Z,89.07
2022-10-26T01:41:49.275Z,89.58
2022-10-26T01:42:49.205Z,89.37
2022-10-26T01:43:49.190Z,89.07
2022-10-26T01:44:49.242Z,88.86
2022-10-26T01:45:49.166Z,88.96
2022-10-26T01:46:49.168Z,88.66
2022-10-26T01:47:49.584Z,88.86
2022-10-26T01:48:49.136Z,88.76
2022-10-26T01:49:49.243Z,89.07
2022-10-26T01:50:49.115Z,88.45
2022-10-26T01:51:49.114Z,89.07
2022-10-26T01:52:49.093Z,89.27
2022-10-26T01:53:49.079Z,89.48
2022-10-26T01:54:49.071Z,89.27
2022-10-26T01:55:49.165Z,89.11
2022-10-26T01:56:49.074Z,89.52
2022-10-26T01:57:49.238Z,89.37
2022-10-26T01:58:49.031Z,89.93
2022-10-26T01:59:49.014Z,90.34
2022-10-26T02:00:49.017Z,89.78
2022-10-26T02:01:49.106Z,90.55
2022-10-26T02:02:48.982Z,89.93
2022-10-26T02:03:49.011Z,89.78
2022-10-26T02:04:48.959Z,89.42
2022-10-26T02:05:48.949Z,89.01
2022-10-26T02:06:48.949Z,89.07
2022-10-26T02:07:49.219Z,89.27
2022-10-26T02:08:48.917Z,89.31
2022-10-26T02:09:48.905Z,89.72
2022-10-26T02:10:48.893Z,89.37
2022-10-26T02:11:48.921Z,89.11
2022-10-26T02:12:48.896Z,89.48
2022-10-26T02:13:48.883Z,89.17
2022-10-26T02:14:48.854Z,89.42
2022-10-26T02:15:48.842Z,89.42
2022-10-26T02:16:48.827Z,89.58
2022-10-26T02:17:49.210Z,89.52
2022-10-26T02:18:48.807Z,89.31
2022-10-26T02:19:48.832Z,89.42
2022-10-26T02:20:48.786Z,89.31
2022-10-26T02:21:48.785Z,89.27
2022-10-26T02:22:48.763Z,88.96
2022-10-26T02:23:48.752Z,88.39
2022-10-26T02:24:48.741Z,88.39
2022-10-26T02:25:48.822Z,89.01
2022-10-26T02:26:48.719Z,89.07
2022-10-26T02:27:49.059Z,88.45
2022-10-26T02:28:48.743Z,88.49
2022-10-26T02:29:48.685Z,88.66
2022-10-26T02:30:48.676Z,88.24
2022-10-26T02:31:48.742Z,88.56
2022-10-26T02:32:48.677Z,88.56
2022-10-26T02:34:48.630Z,89.17
2022-10-26T02:35:48.618Z,88.86
2022-10-26T02:36:48.627Z,88.66
2022-10-26T02:37:48.870Z,89.07
2022-10-26T02:38:48.589Z,88.56
2022-10-26T02:39:48.575Z,88.35
2022-10-26T02:40:48.564Z,88.04
2022-10-26T02:41:48.553Z,88.29
2022-10-26T02:42:48.556Z,87.57
2022-10-26T02:43:48.604Z,88.24
2022-10-26T02:44:48.542Z,88.59
2022-10-26T02:45:48.507Z,88.59
2022-10-26T02:46:48.500Z,89.31
2022-10-26T02:47:48.968Z,88.39
2022-10-26T02:48:48.488Z,88.49
2022-10-26T02:49:48.482Z,88.76
2022-10-26T02:50:48.468Z,89.01
2022-10-26T02:52:48.695Z,90.24
2022-10-26T02:53:48.420Z,89.11
2022-10-26T02:54:48.410Z,88.70
2022-10-26T02:55:48.516Z,87.94
2022-10-26T02:56:48.390Z,88.35
2022-10-26T02:57:48.376Z,88.24
2022-10-26T02:58:48.380Z,89.11
2022-10-26T02:59:48.366Z,88.08
2022-10-26T03:00:48.365Z,87.88
2022-10-26T03:01:48.465Z,88.59
2022-10-26T03:02:48.759Z,87.77
2022-10-26T03:03:48.433Z,88.59
2022-10-26T03:04:48.303Z,88.59
2022-10-26T03:05:48.401Z,89.46
2022-10-26T03:06:48.282Z,89.25
2022-10-26T03:07:48.330Z,89.56
2022-10-26T03:08:48.259Z,90.08
2022-10-26T03:09:48.250Z,90.42
2022-10-26T03:10:48.237Z,90.28
2022-10-26T03:11:48.236Z,90.42
2022-10-26T03:12:48.603Z,91.04
2022-10-26T03:13:48.205Z,91.45
2022-10-26T03:14:48.201Z,90.73
2022-10-26T03:15:48.312Z,90.12
2022-10-26T03:16:48.256Z,91.45
2022-10-26T03:17:48.463Z,90.63
2022-10-26T03:18:48.227Z,89.95
2022-10-26T03:19:48.148Z,89.54
2022-10-26T03:20:48.127Z,89.81
2022-10-26T03:21:48.175Z,89.60
2022-10-26T03:22:48.104Z,88.47
2022-10-26T03:23:48.094Z,88.78
2022-10-26T03:24:48.083Z,88.23
2022-10-26T03:25:48.082Z,89.29
2022-10-26T03:26:48.155Z,89.81
2022-10-26T03:27:48.338Z,88.57
2022-10-26T03:28:48.037Z,88.64
2022-10-26T03:29:48.026Z,88.74
2022-10-26T03:30:48.016Z,88.53
2022-10-26T03:31:48.111Z,89.60
2022-10-26T03:32:48.070Z,89.60
2022-10-26T03:33:47.983Z,90.01
2022-10-26T03:34:47.976Z,90.42
2022-10-26T03:35:47.961Z,90.73
2022-10-26T03:36:47.951Z,89.40
2022-10-26T03:37:48.100Z,89.60
2022-10-26T03:38:48.025Z,90.53
2022-10-26T03:39:47.990Z,89.60
2022-10-26T03:40:47.907Z,90.01
2022-10-26T03:41:47.920Z,90.12
2022-10-26T03:42:48.210Z,89.60
2022-10-26T03:43:47.872Z,90.32
2022-10-26T03:44:47.902Z,90.16
2022-10-26T03:45:47.852Z,90.42
2022-10-26T03:46:47.840Z,90.36
2022-10-26T03:47:47.831Z,90.22
2022-10-26T03:48:47.848Z,89.44
2022-10-26T03:49:47.810Z,89.91
2022-10-26T03:50:47.867Z,89.91
2022-10-26T03:51:47.789Z,90.01
2022-10-26T03:52:48.196Z,89.91
2022-10-26T03:53:47.778Z,91.14
2022-10-26T03:54:47.752Z,91.70
2022-10-26T03:55:47.743Z,90.78
2022-10-26T03:56:51.239Z,92.11
2022-10-26T03:57:48.721Z,92.87
2022-10-26T03:58:47.710Z,92.05
2022-10-26T03:59:47.712Z,92.05
2022-10-26T04:00:47.687Z,91.85
2022-10-26T04:01:47.723Z,90.00
2022-10-26T04:02:48.008Z,89.85
2022-10-26T04:03:47.711Z,90.36
2022-10-26T04:04:47.663Z,89.95
2022-10-26T04:05:47.645Z,90.06
2022-10-26T04:06:47.626Z,89.40
2022-10-26T04:07:48.150Z,89.19
2022-10-26T04:08:47.659Z,89.81
2022-10-26T04:09:47.591Z,90.42
2022-10-26T04:10:47.580Z,90.98
2022-10-26T04:11:47.582Z,90.67
2022-10-26T04:12:47.576Z,86.27
2022-10-26T04:13:47.560Z,86.54
2022-10-26T04:14:47.533Z,87.98
2022-10-26T04:15:47.524Z,88.49
2022-10-26T04:16:47.512Z,89.04
2022-10-26T04:17:47.933Z,89.15
2022-10-26T04:18:47.489Z,89.25
2022-10-26T04:19:47.480Z,89.87
2022-10-26T04:20:47.488Z,88.64
2022-10-26T04:21:47.459Z,89.15
2022-10-26T04:22:47.457Z,89.56
2022-10-26T04:23:47.437Z,90.28
2022-10-26T04:24:47.424Z,89.76
2022-10-26T04:25:47.415Z,89.76
2022-10-26T04:26:47.413Z,89.25
2022-10-26T04:27:47.793Z,89.04
2022-10-26T04:28:47.380Z,90.28
2022-10-26T04:29:47.372Z,90.69
2022-10-26T04:30:47.370Z,90.28
2022-10-26T04:31:47.351Z,91.51
2022-10-26T04:32:47.783Z,92.03
2022-10-26T04:33:47.339Z,91.14
2022-10-26T04:34:47.319Z,90.38
2022-10-26T04:35:47.307Z,90.28
2022-10-26T04:36:47.313Z,89.66
2022-10-26T04:37:47.284Z,90.28
2022-10-26T04:38:47.285Z,89.56
2022-10-26T04:39:47.261Z,89.76
2022-10-26T04:40:47.250Z,90.24
2022-10-26T04:41:47.255Z,90.55
2022-10-26T04:42:47.641Z,90.85
2022-10-26T04:43:47.233Z,90.03
2022-10-26T04:44:47.206Z,91.16
2022-10-26T04:45:47.207Z,91.00
2022-10-26T04:46:47.196Z,90.95
2022-10-26T04:47:47.176Z,90.03
2022-10-26T04:48:47.231Z,90.34
2022-10-26T04:49:47.163Z,90.95
2022-10-26T04:50:47.140Z,89.72
2022-10-26T04:51:47.128Z,89.42
2022-10-26T04:52:47.491Z,89.31
2022-10-26T04:53:47.108Z,89.72
2022-10-26T04:54:47.096Z,89.17
2022-10-26T04:55:47.103Z,89.31
2022-10-26T04:57:47.444Z,89.48
2022-10-26T04:58:47.054Z,89.83
2022-10-26T04:59:47.042Z,90.34
2022-10-26T05:00:47.034Z,90.08
2022-10-26T05:01:47.162Z,89.97
2022-10-26T05:02:47.011Z,92.64
2022-10-26T05:03:47.009Z,91.04
2022-10-26T05:04:46.986Z,89.29
2022-10-26T05:05:46.979Z,88.43
2022-10-26T05:06:46.966Z,88.64
2022-10-26T05:07:47.276Z,88.43
2022-10-26T05:08:46.975Z,89.60
2022-10-26T05:09:46.934Z,89.60
2022-10-26T05:10:46.920Z,89.91
2022-10-26T05:11:46.922Z,90.01
2022-10-26T05:12:46.898Z,90.73
2022-10-26T05:13:46.916Z,90.94
2022-10-26T05:14:46.875Z,91.45
2022-10-26T05:15:46.868Z,90.89
2022-10-26T05:16:46.856Z,91.14
2022-10-26T05:17:47.184Z,90.42
2022-10-26T05:18:46.835Z,90.22
2022-10-26T05:19:46.939Z,91.10
2022-10-26T05:20:46.811Z,89.09
2022-10-26T05:21:46.804Z,89.40
2022-10-26T05:22:47.076Z,88.64
2022-10-26T05:23:46.783Z,88.74
2022-10-26T05:24:46.787Z,88.23
2022-10-26T05:25:46.819Z,88.59
2022-10-26T05:26:46.745Z,87.61
2022-10-26T05:27:46.749Z,88.29
2022-10-26T05:28:46.724Z,89.15
2022-10-26T05:29:46.714Z,88.70
2022-10-26T05:30:46.704Z,89.87
2022-10-26T05:31:46.764Z,91.41
2022-10-26T05:32:46.840Z,90.42
2022-10-26T05:33:46.670Z,88.95
2022-10-26T05:34:46.661Z,88.23
2022-10-26T05:35:46.650Z,88.12
2022-10-26T05:36:46.635Z,88.43
2022-10-26T05:37:46.723Z,89.25
2022-10-26T05:38:46.629Z,89.04
2022-10-26T05:39:46.609Z,89.36
2022-10-26T05:40:46.614Z,89.97
2022-10-26T05:41:46.633Z,89.60
2022-10-26T05:42:46.858Z,89.81
2022-10-26T05:43:46.638Z,90.01
2022-10-26T05:44:46.553Z,89.81
2022-10-26T05:45:46.539Z,88.98
2022-10-26T05:46:46.646Z,88.95
2022-10-26T05:47:46.853Z,87.51
2022-10-26T05:48:46.505Z,86.33
2022-10-26T05:49:46.555Z,86.03
2022-10-26T05:50:46.485Z,84.45
2022-10-26T05:51:46.476Z,84.45
2022-10-26T05:52:46.463Z,85.17
2022-10-26T05:53:46.465Z,85.58
2022-10-26T05:54:46.441Z,85.58
2022-10-26T05:55:46.539Z,87.26
2022-10-26T05:56:46.439Z,89.42
2022-10-26T05:57:46.517Z,91.78
2022-10-26T05:58:46.400Z,91.99
2022-10-26T05:59:46.392Z,91.16
2022-10-26T06:00:46.377Z,92.19
2022-10-26T06:01:46.537Z,94.39
2022-10-26T06:02:46.515Z,97.16
2022-10-26T06:03:46.346Z,99.32
2022-10-26T06:04:46.333Z,99.99
2022-10-26T06:05:46.325Z,99.99
2022-10-26T06:06:46.379Z,99.99
2022-10-26T06:07:46.498Z,99.99
2022-10-26T06:08:46.300Z,99.99
2022-10-26T06:09:46.285Z,99.99
2022-10-26T06:10:46.268Z,99.99
2022-10-26T06:11:46.288Z,99.99
2022-10-26T06:12:46.459Z,99.99
2022-10-26T06:13:46.327Z,99.99
2022-10-26T06:14:46.228Z,99.99
2022-10-26T06:15:46.226Z,99.99
2022-10-26T06:16:46.203Z,99.99
2022-10-26T06:17:46.193Z,99.99
2022-10-26T06:18:46.263Z,99.99
2022-10-26T06:19:46.178Z,99.99
2022-10-26T06:20:46.167Z,99.99
2022-10-26T06:21:46.200Z,99.99
2022-10-26T06:22:46.279Z,99.99
2022-10-26T06:23:46.131Z,99.99
2022-10-26T06:24:46.126Z,99.99
2022-10-26T06:25:46.108Z,99.99
2022-10-26T06:26:46.094Z,99.99
2022-10-26T06:27:46.086Z,99.99
2022-10-26T06:28:48.652Z,99.99
2022-10-26T06:29:46.081Z,99.99
2022-10-26T06:30:46.136Z,99.99
2022-10-26T06:31:46.042Z,99.99
2022-10-26T06:32:46.158Z,99.99
2022-10-26T06:33:46.019Z,99.99
2022-10-26T06:34:46.103Z,99.99
2022-10-26T06:35:46.009Z,99.99
2022-10-26T06:36:46.100Z,99.99
2022-10-26T06:37:46.313Z,99.99
2022-10-26T06:38:46.064Z,99.99
2022-10-26T06:39:47.879Z,99.99
2022-10-26T06:40:46.030Z,99.99
2022-10-26T06:41:45.942Z,99.99
2022-10-26T06:42:46.024Z,99.99
2022-10-26T06:43:45.912Z,99.99
2022-10-26T06:44:45.934Z,99.99
2022-10-26T06:45:45.886Z,99.99
2022-10-26T06:46:45.962Z,99.99
2022-10-26T06:47:46.089Z,99.99
2022-10-26T06:48:45.893Z,99.99
2022-10-26T06:49:45.847Z,99.99
2022-10-26T06:50:45.901Z,99.99
2022-10-26T06:51:45.824Z,99.99
2022-10-26T06:52:45.822Z,99.99
2022-10-26T06:53:45.802Z,99.99
2022-10-26T06:54:45.789Z,99.99
2022-10-26T06:55:45.780Z,99.99
2022-10-26T06:56:45.764Z,99.99
2022-10-26T06:57:45.756Z,99.99
2022-10-26T06:58:45.757Z,99.99
2022-10-26T06:59:45.741Z,99.99
2022-10-26T07:00:45.755Z,99.99
2022-10-26T07:01:45.845Z,99.99
2022-10-26T07:02:45.745Z,99.99
2022-10-26T07:03:45.766Z,99.99
2022-10-26T07:04:45.690Z,99.99
2022-10-26T07:05:45.669Z,99.99
2022-10-26T07:06:45.656Z,99.99
2022-10-26T07:07:45.646Z,99.99
2022-10-26T07:08:45.647Z,99.99
2022-10-26T07:09:45.624Z,99.99
2022-10-26T07:10:45.622Z,99.99
2022-10-26T07:11:45.603Z,99.99
2022-10-26T07:12:45.588Z,99.99
2022-10-26T07:13:45.581Z,99.99
2022-10-26T07:14:45.568Z,99.99
2022-10-26T07:15:45.576Z,99.99
2022-10-26T07:16:45.578Z,99.99
2022-10-26T07:17:45.541Z,99.99
2022-10-26T07:18:45.538Z,99.99
2022-10-26T07:19:45.524Z,99.99
2022-10-26T07:20:45.502Z,99.99
2022-10-26T07:21:45.494Z,99.99
2022-10-26T07:22:45.494Z,99.99
2022-10-26T07:23:45.473Z,99.99
2022-10-26T07:24:45.459Z,99.99
2022-10-26T07:25:45.454Z,99.99
2022-10-26T07:26:45.539Z,99.99
2022-10-26T07:27:45.428Z,99.99
2022-10-26T07:28:45.517Z,99.99
2022-10-26T07:29:45.422Z,99.99
2022-10-26T07:30:45.490Z,99.99
2022-10-26T07:31:45.469Z,99.99
2022-10-26T07:32:45.449Z,99.99
2022-10-26T07:33:45.362Z,99.99
2022-10-26T07:34:45.451Z,99.99
2022-10-26T07:35:45.355Z,99.99
2022-10-26T07:36:45.365Z,99.99
2022-10-26T07:37:45.341Z,99.99
2022-10-26T07:38:45.308Z,98.96
2022-10-26T07:39:45.302Z,99.99
2022-10-26T07:40:45.288Z,99.99
2022-10-26T07:41:45.277Z,99.99
2022-10-26T07:42:47.674Z,99.99
2022-10-26T07:43:45.278Z,99.99
2022-10-26T07:44:45.243Z,96.66
2022-10-26T07:45:45.267Z,98.97
2022-10-26T07:46:45.272Z,98.51
2022-10-26T07:47:45.224Z,99.99
2022-10-26T07:49:45.204Z,97.23
2022-10-26T07:50:45.199Z,99.59
2022-10-26T07:51:45.250Z,96.78
2022-10-26T07:52:45.167Z,96.92
2022-10-26T07:53:45.150Z,99.99
2022-10-26T07:54:45.145Z,99.99
2022-10-26T07:55:45.146Z,99.99
2022-10-26T07:56:45.142Z,99.99
2022-10-26T07:57:46.086Z,99.99
2022-10-26T07:58:45.102Z,99.99
2022-10-26T07:59:45.085Z,99.99
2022-10-26T08:00:45.224Z,99.99
2022-10-26T08:01:45.083Z,99.99
2022-10-26T08:02:45.156Z,99.99
2022-10-26T08:03:45.116Z,99.99
2022-10-26T08:04:45.058Z,99.99
2022-10-26T08:05:45.021Z,99.99
2022-10-26T08:06:45.015Z,99.99
2022-10-26T08:07:45.000Z,99.99
2022-10-26T08:08:47.395Z,99.99
2022-10-26T08:09:44.977Z,99.99
2022-10-26T08:10:44.971Z,99.99
2022-10-26T08:11:44.957Z,99.99
2022-10-26T08:12:44.959Z,99.99
2022-10-26T08:13:45.003Z,99.99
2022-10-26T08:14:45.011Z,99.99
2022-10-26T08:15:44.921Z,99.99
2022-10-26T08:16:44.907Z,99.99
2022-10-26T08:17:44.894Z,99.99
2022-10-26T08:18:44.897Z,99.99
2022-10-26T08:19:44.873Z,99.99
2022-10-26T08:20:44.925Z,99.99
2022-10-26T08:21:44.855Z,99.99
2022-10-26T08:22:44.862Z,99.99
2022-10-26T08:23:44.837Z,99.99
2022-10-26T08:24:44.824Z,99.99
2022-10-26T08:25:44.810Z,99.99
2022-10-26T08:26:44.867Z,99.99
2022-10-26T08:27:44.788Z,99.99
2022-10-26T08:28:44.792Z,99.99
2022-10-26T08:29:44.766Z,99.99
2022-10-26T08:30:44.768Z,99.59
2022-10-26T08:31:44.744Z,96.43
2022-10-26T08:32:44.805Z,96.89
2022-10-26T08:33:45.135Z,96.48
2022-10-26T08:34:44.718Z,93.38
2022-10-26T08:35:44.702Z,94.02
2022-10-26T08:36:44.722Z,93.70
2022-10-26T08:37:44.702Z,95.22
2022-10-26T08:38:44.757Z,96.39
2022-10-26T08:39:44.683Z,96.08
2022-10-26T08:40:44.648Z,97.62
2022-10-26T08:41:44.649Z,98.54
2022-10-26T08:42:44.642Z,98.13
2022-10-26T08:43:44.612Z,99.62
2022-10-26T08:44:44.676Z,99.11
2022-10-26T08:45:44.588Z,97.98
2022-10-26T08:46:44.580Z,96.51
2022-10-26T08:47:44.567Z,96.30
2022-10-26T08:48:44.570Z,97.42
2022-10-26T08:49:44.544Z,96.42
2022-10-26T08:50:44.601Z,95.80
2022-10-26T08:51:44.523Z,94.48
2022-10-26T08:52:44.533Z,94.68
2022-10-26T08:53:44.609Z,94.21
2022-10-26T08:54:44.491Z,90.17
2022-10-26T08:55:44.479Z,92.99
2022-10-26T08:56:47.177Z,94.52
2022-10-26T08:57:45.455Z,91.47
2022-10-26T08:58:44.447Z,90.04
2022-10-26T08:59:44.452Z,87.53
2022-10-26T09:00:44.512Z,86.00
2022-10-26T09:01:44.598Z,88.31
2022-10-26T09:02:44.577Z,88.82
2022-10-26T09:03:44.386Z,89.90
2022-10-26T09:04:44.391Z,88.78
2022-10-26T09:05:44.380Z,87.92
2022-10-26T09:06:44.355Z,83.51
2022-10-26T09:07:44.343Z,83.62
2022-10-26T09:08:44.385Z,92.50
2022-10-26T09:09:44.321Z,94.49
2022-10-26T09:10:44.322Z,95.76
2022-10-26T09:11:44.316Z,97.33
2022-10-26T09:12:44.292Z,97.58
2022-10-26T09:13:44.278Z,97.49
2022-10-26T09:14:44.290Z,95.34
2022-10-26T09:15:44.258Z,97.12
2022-10-26T09:16:44.246Z,97.42
2022-10-26T09:17:44.242Z,96.30
2022-10-26T09:18:44.311Z,93.48
2022-10-26T09:19:44.213Z,92.66
2022-10-26T09:20:44.246Z,92.52
2022-10-26T09:21:44.188Z,92.11
2022-10-26T09:22:44.177Z,93.24
2022-10-26T09:23:44.177Z,95.02
2022-10-26T09:24:44.178Z,96.14
2022-10-26T09:25:44.143Z,96.39
2022-10-26T09:26:44.230Z,97.88
2022-10-26T09:27:44.127Z,97.47
2022-10-26T09:28:44.122Z,98.49
2022-10-26T09:29:44.112Z,98.54
2022-10-26T09:30:44.158Z,99.52
2022-10-26T09:31:44.088Z,98.85
2022-10-26T09:32:44.176Z,97.57
2022-10-26T09:33:44.158Z,98.49
2022-10-26T09:34:44.048Z,99.21
2022-10-26T09:35:44.033Z,98.74
2022-10-26T09:36:44.025Z,96.55
2022-10-26T09:37:44.012Z,97.57
2022-10-26T09:38:44.070Z,98.29
2022-10-26T09:39:43.989Z,97.57
2022-10-26T09:40:44.001Z,98.29
2022-10-26T09:41:43.974Z,99.11
2022-10-26T09:42:43.958Z,98.49
2022-10-26T09:43:44.026Z,98.03
2022-10-26T09:44:44.021Z,96.39
2022-10-26T09:45:43.923Z,95.67
2022-10-26T09:46:43.968Z,97.31
2022-10-26T09:47:43.902Z,97.27
2022-10-26T09:48:43.891Z,98.60
2022-10-26T09:49:43.878Z,98.65
2022-10-26T09:50:43.952Z,99.31
2022-10-26T09:51:43.855Z,99.99
2022-10-26T09:52:43.862Z,99.99
2022-10-26T09:53:43.843Z,99.88
2022-10-26T09:54:43.825Z,99.72
2022-10-26T09:55:43.811Z,99.99
2022-10-26T09:56:43.864Z,99.99
2022-10-26T09:57:43.790Z,99.99
2022-10-26T09:58:43.791Z,99.99
2022-10-26T09:59:43.765Z,99.21
2022-10-26T10:00:43.757Z,99.62
2022-10-26T10:01:43.768Z,99.99
2022-10-26T10:02:43.970Z,99.99
2022-10-26T10:03:43.721Z,99.99
2022-10-26T10:04:43.722Z,99.78
2022-10-26T10:05:52.491Z,97.98
2022-10-26T10:06:44.700Z,98.04
2022-10-26T10:07:43.679Z,97.88
2022-10-26T10:08:43.918Z,98.29
2022-10-26T10:09:43.654Z,98.90
2022-10-26T10:10:43.647Z,97.82
2022-10-26T10:11:43.631Z,98.65
2022-10-26T10:12:43.655Z,98.33
2022-10-26T10:13:43.610Z,98.65
2022-10-26T10:14:43.666Z,99.46
2022-10-26T10:15:43.587Z,99.26
2022-10-26T10:16:43.588Z,99.82
2022-10-26T10:17:43.569Z,99.99
2022-10-26T10:18:43.554Z,99.26
2022-10-26T10:19:43.554Z,97.92
2022-10-26T10:20:43.644Z,97.00
2022-10-26T10:21:43.521Z,98.60
2022-10-26T10:22:43.512Z,97.88
2022-10-26T10:23:43.498Z,97.27
2022-10-26T10:24:43.491Z,96.55
2022-10-26T10:25:43.488Z,96.14
2022-10-26T10:26:43.540Z,97.16
2022-10-26T10:27:43.454Z,97.78
2022-10-26T10:28:43.473Z,98.08
2022-10-26T10:29:43.433Z,96.61
2022-10-26T10:30:43.452Z,96.10
2022-10-26T10:31:43.412Z,97.94
2022-10-26T10:32:43.470Z,99.21
2022-10-26T10:33:43.390Z,99.99
2022-10-26T10:34:43.384Z,99.99
2022-10-26T10:35:43.370Z,99.99
2022-10-26T10:36:43.373Z,99.99
2022-10-26T10:37:43.347Z,99.99
2022-10-26T10:38:43.380Z,99.99
2022-10-26T10:39:43.326Z,99.99
2022-10-26T10:40:43.318Z,99.52
2022-10-26T10:41:43.317Z,99.98
2022-10-26T10:42:43.297Z,99.62
2022-10-26T10:43:43.283Z,99.62
2022-10-26T10:44:43.315Z,99.99
2022-10-26T10:45:43.259Z,99.99
2022-10-26T10:46:43.253Z,99.99
2022-10-26T10:47:43.260Z,99.99
2022-10-26T10:48:43.230Z,99.99
2022-10-26T10:49:43.237Z,99.99
2022-10-26T10:50:43.232Z,99.99
2022-10-26T10:51:43.200Z,99.99
2022-10-26T10:52:43.187Z,99.99
2022-10-26T10:53:43.187Z,99.99
2022-10-26T10:54:43.166Z,99.99
2022-10-26T10:55:43.168Z,99.99
2022-10-26T10:56:43.209Z,99.99
2022-10-26T10:57:43.147Z,99.99
2022-10-26T10:58:43.122Z,99.99
2022-10-26T10:59:43.160Z,99.99
2022-10-26T11:00:43.130Z,99.99
2022-10-26T11:01:43.170Z,99.99
2022-10-26T11:02:43.250Z,97.70
2022-10-26T11:03:43.126Z,95.65
2022-10-26T11:04:43.070Z,96.98
2022-10-26T11:05:43.051Z,96.17
2022-10-26T11:06:43.103Z,94.48
2022-10-26T11:07:43.076Z,94.78
2022-10-26T11:08:43.056Z,95.76
2022-10-26T11:09:43.122Z,95.25
2022-10-26T11:10:43.044Z,97.14
2022-10-26T11:11:45.468Z,97.45
2022-10-26T11:12:43.028Z,98.57
2022-10-26T11:13:42.999Z,97.08
2022-10-26T11:14:45.178Z,97.00
2022-10-26T11:15:42.979Z,94.88
2022-10-26T11:16:42.988Z,93.05
2022-10-26T11:17:43.038Z,91.78
2022-10-26T11:18:42.930Z,94.34
2022-10-26T11:19:42.947Z,91.45
2022-10-26T11:20:42.956Z,92.77
2022-10-26T11:21:42.928Z,94.95
2022-10-26T11:22:42.914Z,92.76
2022-10-26T11:23:42.941Z,95.14
2022-10-26T11:24:42.895Z,95.49
2022-10-26T11:25:42.863Z,94.23
2022-10-26T11:26:45.267Z,93.76
2022-10-26T11:27:42.819Z,94.57
2022-10-26T11:28:42.798Z,93.62
2022-10-26T11:29:45.929Z,93.41
2022-10-26T11:30:42.785Z,93.15
2022-10-26T11:31:42.763Z,93.83
2022-10-26T11:32:42.793Z,91.88
2022-10-26T11:33:42.741Z,93.96
2022-10-26T11:34:42.734Z,94.88
2022-10-26T11:35:42.763Z,94.12
2022-10-26T11:36:42.736Z,90.88
2022-10-26T11:37:42.714Z,89.26
2022-10-26T11:38:55.949Z,90.94
2022-10-26T11:39:43.675Z,87.79
2022-10-26T11:40:42.680Z,89.22
2022-10-26T11:41:42.701Z,91.49
2022-10-26T11:42:42.645Z,92.86
2022-10-26T11:43:42.633Z,90.52
2022-10-26T11:44:42.636Z,91.83
2022-10-26T11:45:42.622Z,92.54
2022-10-26T11:46:42.600Z,93.66
2022-10-26T11:47:42.673Z,89.53
2022-10-26T11:48:42.603Z,88.57
2022-10-26T11:49:42.586Z,89.05
2022-10-26T11:50:42.560Z,89.07
2022-10-26T11:51:42.544Z,88.56
2022-10-26T11:52:42.537Z,88.36
2022-10-26T11:53:42.577Z,87.04
2022-10-26T11:54:42.512Z,87.73
2022-10-26T11:55:42.522Z,87.63
2022-10-26T11:56:42.494Z,88.24
2022-10-26T11:57:42.478Z,88.44
2022-10-26T11:58:42.542Z,88.81
2022-10-26T11:59:42.533Z,88.44
2022-10-26T12:00:42.456Z,88.81
2022-10-26T12:01:42.464Z,89.14
2022-10-26T12:03:42.413Z,89.48
2022-10-26T12:04:42.434Z,90.05
2022-10-26T12:05:42.476Z,88.81
2022-10-26T12:06:42.383Z,87.45
2022-10-26T12:07:42.373Z,87.30
2022-10-26T12:08:42.359Z,87.46
2022-10-26T12:09:42.399Z,86.76
2022-10-26T12:10:42.350Z,87.95
2022-10-26T12:11:42.361Z,88.36
2022-10-26T12:12:42.316Z,87.92
2022-10-26T12:13:42.303Z,88.12
2022-10-26T12:14:42.294Z,86.10
2022-10-26T12:16:43.273Z,86.47
2022-10-26T12:17:42.288Z,87.91
2022-10-26T12:18:55.167Z,86.79
2022-10-26T12:19:43.238Z,86.59
2022-10-26T12:20:42.280Z,84.48
2022-10-26T12:21:42.227Z,86.16
2022-10-26T12:22:42.204Z,83.18
2022-10-26T12:23:51.522Z,84.67
2022-10-26T12:24:43.182Z,84.67
2022-10-26T12:25:42.175Z,84.00
2022-10-26T12:26:42.172Z,83.87
2022-10-26T12:27:42.240Z,87.02
2022-10-26T12:28:42.140Z,86.98
2022-10-26T12:29:42.171Z,84.89
2022-10-26T12:30:42.123Z,87.48
2022-10-26T12:31:42.121Z,82.84
2022-10-26T12:32:43.792Z,83.65
2022-10-26T12:33:42.089Z,83.96
2022-10-26T12:34:42.076Z,84.06
2022-10-26T12:35:42.118Z,83.31
2022-10-26T12:36:42.085Z,83.21
2022-10-26T12:37:42.046Z,81.39
2022-10-26T12:38:42.031Z,83.58
2022-10-26T12:39:42.022Z,81.98
2022-10-26T12:40:42.013Z,80.87
2022-10-26T12:41:42.068Z,79.69
2022-10-26T12:42:42.000Z,81.98
2022-10-26T12:43:42.088Z,81.84
2022-10-26T12:44:41.970Z,79.82
2022-10-26T12:45:41.958Z,79.75
2022-10-26T12:46:42.018Z,81.88
2022-10-26T12:47:41.981Z,80.73
2022-10-26T12:48:41.925Z,77.33
2022-10-26T12:49:41.916Z,78.58
2022-10-26T12:50:41.904Z,80.88
2022-10-26T12:51:41.911Z,82.30
2022-10-26T12:52:41.914Z,79.67
2022-10-26T12:53:45.791Z,81.79
2022-10-26T12:54:41.864Z,81.79
2022-10-26T12:55:41.850Z,81.90
2022-10-26T12:56:41.839Z,82.30
2022-10-26T12:57:41.840Z,81.18
2022-10-26T12:58:41.817Z,82.67